Time;durP1;ratioP1;P1;durP2;ratioP2;P2;SDS_P1;SDS_P2;PMS_P1;PMS_P2;Temp;Humidity;BMP_temperature;BMP_pressure;BME280_temperature;BME280_humidity;BME280_pressure;Samples;Min_cycle;Max_cycle;Signal;HPM_P1;HPM_P2
2022/05/23 00:00:51;;;;;;;6.23;3.77;;;14.20;99.90;;;;;;4777009;29;20081;-78
2022/05/23 00:03:18;;;;;;;4.13;3.17;;;14.20;99.90;;;;;;4789804;29;20099;-77
2022/05/23 00:05:43;;;;;;;5.00;3.10;;;14.20;99.90;;;;;;4796260;29;20439;-77
2022/05/23 00:08:10;;;;;;;5.10;3.10;;;14.10;99.90;;;;;;4791085;29;20114;-78
2022/05/23 00:10:35;;;;;;;3.90;2.80;;;14.10;99.90;;;;;;4808659;29;20054;-78
2022/05/23 00:13:01;;;;;;;5.57;3.27;;;14.10;99.90;;;;;;4777330;29;20085;-78
2022/05/23 00:15:27;;;;;;;3.80;3.00;;;14.10;99.90;;;;;;4776284;29;20042;-78
2022/05/23 00:17:54;;;;;;;6.07;3.23;;;14.10;99.90;;;;;;4793414;29;20108;-78
2022/05/23 00:20:22;;;;;;;4.63;3.20;;;14.10;99.90;;;;;;4785043;29;20110;-78
2022/05/23 00:22:48;;;;;;;3.50;2.67;;;14.10;99.90;;;;;;4774478;29;20068;-78
2022/05/23 00:25:15;;;;;;;5.20;3.10;;;14.10;99.90;;;;;;4772021;30;20054;-78
2022/05/23 00:27:42;;;;;;;3.87;2.87;;;14.10;99.90;;;;;;4788322;29;20055;-78
2022/05/23 00:30:21;;;;;;;3.40;2.60;;;14.00;99.90;;;;;;4787892;29;20066;-77
2022/05/23 00:35:31;;;;;;;5.90;3.03;;;14.00;99.90;;;;;;4792747;29;20051;-78
2022/05/23 00:37:57;;;;;;;5.00;2.70;;;14.00;99.90;;;;;;4773790;29;20393;-77
2022/05/23 00:40:50;;;;;;;5.73;2.60;;;14.00;99.90;;;;;;4778432;30;20535;-78
2022/05/23 00:43:26;;;;;;;3.40;2.50;;;14.00;99.90;;;;;;4791675;29;20047;-78
2022/05/23 00:45:59;;;;;;;5.23;2.87;;;14.00;99.90;;;;;;4776797;30;20055;-78
2022/05/23 00:48:27;;;;;;;5.53;3.17;;;14.00;99.90;;;;;;4795799;29;20586;-78
2022/05/23 00:50:57;;;;;;;4.60;3.10;;;14.00;99.90;;;;;;4775273;29;20051;-77
2022/05/23 00:53:34;;;;;;;6.33;3.27;;;13.90;99.90;;;;;;4777901;30;20074;-77
2022/05/23 00:56:00;;;;;;;5.20;3.07;;;13.90;99.90;;;;;;4793265;29;20347;-77
2022/05/23 00:58:31;;;;;;;4.87;2.93;;;13.80;99.90;;;;;;4780476;29;21108;-78
2022/05/23 01:01:04;;;;;;;5.03;2.93;;;13.80;99.90;;;;;;4800891;29;20062;-77
2022/05/23 01:03:30;;;;;;;4.87;3.00;;;13.80;99.90;;;;;;4775631;29;20415;-77
2022/05/23 01:05:56;;;;;;;5.20;3.37;;;13.80;99.90;;;;;;4777889;30;20062;-78
2022/05/23 01:08:22;;;;;;;3.83;2.70;;;13.70;99.90;;;;;;4790948;29;20055;-77
2022/05/23 01:10:49;;;;;;;3.13;2.83;;;13.70;99.90;;;;;;4792108;29;20577;-78
2022/05/23 01:13:15;;;;;;;5.63;3.60;;;13.70;99.90;;;;;;4792220;29;20225;-78
2022/05/23 01:15:46;;;;;;;4.90;2.87;;;13.70;99.90;;;;;;4760126;30;20130;-78
2022/05/23 01:18:12;;;;;;;4.47;3.10;;;13.70;99.90;;;;;;4777799;29;20050;-78
2022/05/23 01:20:37;;;;;;;4.07;3.37;;;13.60;99.90;;;;;;4793116;29;20052;-77
2022/05/23 01:23:25;;;;;;;5.23;3.57;;;13.60;99.90;;;;;;4777408;30;20059;-78
2022/05/23 01:25:50;;;;;;;3.60;2.97;;;13.60;99.90;;;;;;4778277;30;20051;-77
2022/05/23 01:28:16;;;;;;;4.07;3.27;;;13.60;99.90;;;;;;4762891;29;20524;-78
2022/05/23 01:30:43;;;;;;;6.07;3.23;;;13.60;99.90;;;;;;4776274;30;20519;-78
2022/05/23 01:33:10;;;;;;;3.80;3.40;;;13.60;99.90;;;;;;4789263;29;20050;-78
2022/05/23 01:35:37;;;;;;;3.37;3.03;;;13.60;99.90;;;;;;4775837;30;20049;-79
2022/05/23 01:38:03;;;;;;;4.80;3.23;;;13.60;99.90;;;;;;4758490;30;20054;-78
2022/05/23 01:40:29;;;;;;;5.33;4.00;;;13.50;99.90;;;;;;4776426;29;20094;-78
2022/05/23 01:42:56;;;;;;;4.27;3.13;;;13.60;99.90;;;;;;4776298;30;20063;-77
2022/05/23 01:45:25;;;;;;;4.37;3.23;;;13.60;99.90;;;;;;4760593;29;20075;-78
2022/05/23 01:47:51;;;;;;;4.93;3.43;;;13.60;99.90;;;;;;4789642;29;20069;-78
2022/05/23 01:50:17;;;;;;;5.33;3.37;;;13.60;99.90;;;;;;4774890;29;20048;-77
2022/05/23 01:52:43;;;;;;;8.47;3.80;;;13.60;99.90;;;;;;4776061;30;20047;-78
2022/05/23 01:55:09;;;;;;;5.67;3.60;;;13.60;99.90;;;;;;4773585;30;20379;-76
2022/05/23 01:57:35;;;;;;;5.47;3.43;;;13.60;99.90;;;;;;4761333;30;20128;-77
2022/05/23 02:02:47;;;;;;;5.73;3.90;;;13.60;99.90;;;;;;4792523;29;20590;-78
2022/05/23 02:05:15;;;;;;;7.47;3.50;;;13.60;99.90;;;;;;4790505;29;20953;-78
2022/05/23 02:07:41;;;;;;;7.20;3.80;;;13.60;99.90;;;;;;4775698;30;20274;-77
2022/05/23 02:10:07;;;;;;;5.43;3.50;;;13.50;99.90;;;;;;4794631;29;20622;-78
2022/05/23 02:12:33;;;;;;;7.90;3.70;;;13.50;99.90;;;;;;4773204;30;20058;-76
2022/05/23 02:14:59;;;;;;;6.33;4.00;;;13.50;99.90;;;;;;4759187;30;20036;-78
2022/05/23 02:17:24;;;;;;;6.73;4.20;;;13.50;99.90;;;;;;4744054;29;20101;-77
2022/05/23 02:19:50;;;;;;;6.43;4.13;;;13.50;99.90;;;;;;4759350;29;20067;-78
2022/05/23 02:22:16;;;;;;;6.87;4.20;;;13.50;99.90;;;;;;4779141;29;20395;-78
2022/05/23 02:24:41;;;;;;;7.10;4.03;;;13.50;99.90;;;;;;4776104;29;20095;-78
2022/05/23 02:27:07;;;;;;;5.37;4.47;;;13.50;99.90;;;;;;4761576;29;20047;-77
2022/05/23 02:29:34;;;;;;;7.20;4.47;;;13.50;99.90;;;;;;4799325;29;20082;-78
2022/05/23 02:32:00;;;;;;;7.37;4.53;;;13.50;99.90;;;;;;4777052;29;20487;-78
2022/05/23 02:34:26;;;;;;;5.43;4.50;;;13.50;99.90;;;;;;4777111;29;20050;-77
2022/05/23 02:36:52;;;;;;;5.30;4.37;;;13.50;99.90;;;;;;4782281;29;20039;-77
2022/05/23 02:39:18;;;;;;;6.03;4.80;;;13.40;99.90;;;;;;4791121;29;20050;-77
2022/05/23 02:41:44;;;;;;;5.83;5.17;;;13.40;99.90;;;;;;4789021;29;20046;-77
2022/05/23 02:44:09;;;;;;;6.57;5.30;;;13.40;99.90;;;;;;4762957;29;20046;-78
2022/05/23 02:46:35;;;;;;;5.90;4.70;;;13.40;99.90;;;;;;4774985;29;20050;-78
2022/05/23 02:49:01;;;;;;;6.70;4.90;;;13.40;99.90;;;;;;4791268;29;20043;-78
2022/05/23 02:51:28;;;;;;;8.40;5.20;;;13.40;99.90;;;;;;4781776;29;20134;-78
2022/05/23 02:53:53;;;;;;;7.20;5.13;;;13.40;99.90;;;;;;4775779;29;20115;-78
2022/05/23 02:56:19;;;;;;;7.30;4.90;;;13.40;99.90;;;;;;4777031;29;20473;-78
2022/05/23 02:58:45;;;;;;;6.13;4.90;;;13.40;99.90;;;;;;4776517;29;20470;-78
2022/05/23 03:01:11;;;;;;;5.77;5.13;;;13.50;99.90;;;;;;4761033;29;20079;-78
2022/05/23 03:03:39;;;;;;;7.80;5.27;;;13.40;99.90;;;;;;4760765;29;20089;-78
2022/05/23 03:06:05;;;;;;;9.07;5.27;;;13.40;99.90;;;;;;4789397;29;20078;-78
2022/05/23 03:08:31;;;;;;;6.73;5.30;;;13.40;99.90;;;;;;4793272;29;20076;-78
2022/05/23 03:10:59;;;;;;;5.60;5.00;;;13.40;99.90;;;;;;4795135;29;20146;-78
2022/05/23 03:13:26;;;;;;;7.03;5.60;;;13.40;99.90;;;;;;4776631;29;20448;-77
2022/05/23 03:15:52;;;;;;;10.10;5.63;;;13.40;99.90;;;;;;4790675;29;20050;-77
2022/05/23 03:18:18;;;;;;;6.10;5.40;;;13.40;99.90;;;;;;4777126;29;20345;-78
2022/05/23 03:20:43;;;;;;;6.97;5.50;;;13.40;99.90;;;;;;4777000;29;20051;-77
2022/05/23 03:26:58;;;;;;;6.90;5.67;;;13.40;99.90;;;;;;4790881;29;20058;-79
2022/05/23 03:29:00;;;;;;;7.93;5.80;;;13.40;99.90;;;;;;4792120;29;20066;-78
2022/05/23 03:31:27;;;;;;;9.33;5.93;;;13.30;99.90;;;;;;4791145;29;20506;-77
2022/05/23 03:33:53;;;;;;;7.60;5.90;;;13.40;99.90;;;;;;4775159;29;20058;-78
2022/05/23 03:36:20;;;;;;;8.37;5.93;;;13.40;99.90;;;;;;4762358;29;20038;-78
2022/05/23 03:38:45;;;;;;;7.80;5.83;;;13.40;99.90;;;;;;4791398;29;20070;-78
2022/05/23 03:41:11;;;;;;;9.63;5.90;;;13.30;99.90;;;;;;4790256;29;20070;-78
2022/05/23 03:43:37;;;;;;;6.63;5.70;;;13.40;99.90;;;;;;4761282;29;20137;-79
2022/05/23 03:46:08;;;;;;;6.57;5.70;;;13.40;99.90;;;;;;4775412;29;20141;-78
2022/05/23 03:48:35;;;;;;;9.50;6.30;;;13.40;99.90;;;;;;4776475;29;20490;-78
2022/05/23 03:51:01;;;;;;;8.87;6.13;;;13.30;99.90;;;;;;4783526;29;20059;-78
2022/05/23 03:53:28;;;;;;;8.53;6.23;;;13.40;99.90;;;;;;4763549;29;20054;-78
2022/05/23 03:55:55;;;;;;;7.83;6.03;;;13.30;99.90;;;;;;4775006;29;20043;-78
2022/05/23 03:58:21;;;;;;;8.17;6.17;;;13.30;99.90;;;;;;4776415;29;20047;-77
2022/05/23 04:00:49;;;;;;;6.00;5.40;;;13.30;99.90;;;;;;4791007;29;20134;-78
2022/05/23 04:03:19;;;;;;;6.20;5.60;;;13.30;99.90;;;;;;4760978;29;20088;-78
2022/05/23 04:05:45;;;;;;;8.47;5.97;;;13.30;99.90;;;;;;4790373;29;20051;-78
2022/05/23 04:08:12;;;;;;;8.13;6.03;;;13.30;99.90;;;;;;4775071;29;20062;-78
2022/05/23 04:10:39;;;;;;;7.43;6.03;;;13.30;99.90;;;;;;4793576;29;20055;-78
2022/05/23 04:13:05;;;;;;;8.67;5.80;;;13.30;99.90;;;;;;4783066;29;20047;-77
2022/05/23 04:15:32;;;;;;;6.17;5.57;;;13.30;99.90;;;;;;4780711;29;20062;-78
2022/05/23 04:17:58;;;;;;;7.37;5.87;;;13.40;99.90;;;;;;4781345;29;20050;-78
2022/05/23 04:20:24;;;;;;;7.37;5.93;;;13.40;99.90;;;;;;4796852;29;20548;-77
2022/05/23 04:22:49;;;;;;;7.57;5.20;;;13.40;99.90;;;;;;4796434;29;20431;-75
2022/05/23 04:25:16;;;;;;;7.20;5.77;;;13.40;99.90;;;;;;4766445;29;20151;-77
2022/05/23 04:27:41;;;;;;;8.07;5.97;;;13.40;99.90;;;;;;4803685;29;20058;-78
2022/05/23 04:30:09;;;;;;;6.87;5.90;;;13.30;99.90;;;;;;4781122;29;20716;-76
2022/05/23 04:35:22;;;;;;;7.93;6.27;;;13.30;99.90;;;;;;4796669;29;20043;-78
2022/05/23 04:37:51;;;;;;;7.07;5.83;;;13.30;99.90;;;;;;4795729;29;20042;-78
2022/05/23 04:40:20;;;;;;;10.40;7.07;;;13.30;99.90;;;;;;4782703;29;20046;-78
2022/05/23 04:42:46;;;;;;;6.53;5.83;;;13.30;99.90;;;;;;4782876;29;20054;-78
2022/05/23 04:45:14;;;;;;;8.40;6.63;;;13.30;99.90;;;;;;4798186;29;20066;-78
2022/05/23 04:50:25;;;;;;;10.17;6.60;;;13.30;99.90;;;;;;4780262;29;20055;-78
2022/05/23 04:52:52;;;;;;;9.57;6.53;;;13.30;99.90;;;;;;4798619;29;20063;-78
2022/05/23 04:55:19;;;;;;;8.30;6.00;;;13.30;99.90;;;;;;4781327;29;20058;-78
2022/05/23 04:57:45;;;;;;;7.23;6.53;;;13.30;99.90;;;;;;4781431;29;20070;-78
2022/05/23 05:00:13;;;;;;;9.43;6.83;;;13.40;99.90;;;;;;4781046;29;20372;-78
2022/05/23 05:02:39;;;;;;;6.53;5.67;;;13.50;99.90;;;;;;4794347;29;20121;-77
2022/05/23 05:05:06;;;;;;;7.17;6.27;;;13.60;99.90;;;;;;4784457;29;20067;-77
2022/05/23 05:07:33;;;;;;;7.37;6.67;;;13.60;99.90;;;;;;4795073;29;20463;-77
2022/05/23 05:09:59;;;;;;;8.40;6.20;;;13.70;99.90;;;;;;4785097;29;20051;-78
2022/05/23 05:12:25;;;;;;;10.43;6.97;;;13.80;99.90;;;;;;4766552;29;20043;-78
2022/05/23 05:14:51;;;;;;;8.43;6.90;;;13.90;99.90;;;;;;4768437;29;20059;-78
2022/05/23 05:17:17;;;;;;;8.40;6.40;;;14.00;99.90;;;;;;4805410;29;20051;-77
2022/05/23 05:19:42;;;;;;;6.63;6.00;;;14.00;99.90;;;;;;4751388;29;20046;-78
2022/05/23 05:22:08;;;;;;;8.10;6.27;;;14.10;99.90;;;;;;4776626;29;20058;-79
2022/05/23 05:24:34;;;;;;;7.90;6.40;;;14.10;99.90;;;;;;4763223;29;20066;-79
2022/05/23 05:27:01;;;;;;;8.63;6.83;;;14.20;99.90;;;;;;4779190;29;20176;-78
2022/05/23 05:29:27;;;;;;;8.63;6.80;;;14.30;99.90;;;;;;4793264;29;20047;-77
2022/05/23 05:31:56;;;;;;;8.53;6.90;;;14.40;99.90;;;;;;4791621;29;20062;-78
2022/05/23 05:35:01;;;;;;;7.67;6.47;;;14.50;99.90;;;;;;4797661;29;20517;-77
2022/05/23 05:37:39;;;;;;;8.10;6.40;;;14.60;99.90;;;;;;4791715;29;20058;-75
2022/05/23 05:40:06;;;;;;;8.57;6.03;;;14.70;99.90;;;;;;4779340;29;20045;-76
2022/05/23 05:42:39;;;;;;;8.07;6.60;;;14.70;99.90;;;;;;4791509;29;20059;-75
2022/05/23 05:45:12;;;;;;;9.17;6.13;;;14.80;99.90;;;;;;4791667;29;20534;-79
2022/05/23 05:47:42;;;;;;;9.57;6.80;;;14.70;99.90;;;;;;4778240;29;20114;-79
2022/05/23 05:50:15;;;;;;;9.30;7.27;;;14.70;99.90;;;;;;4777365;29;20141;-76
2022/05/23 05:52:41;;;;;;;9.53;6.87;;;14.80;99.90;;;;;;4793771;29;20086;-81
2022/05/23 05:55:08;;;;;;;8.53;6.50;;;14.80;99.90;;;;;;4778160;29;20051;-79
2022/05/23 05:57:34;;;;;;;11.57;7.30;;;14.80;99.90;;;;;;4760433;29;20443;-77
2022/05/23 06:00:00;;;;;;;9.40;6.43;;;14.90;99.90;;;;;;4777150;29;20065;-75
2022/05/23 06:02:26;;;;;;;9.20;7.27;;;14.90;99.90;;;;;;4796555;29;20119;-75
2022/05/23 06:04:52;;;;;;;8.18;6.65;;;15.00;99.90;;;;;;4792688;29;20050;-76
2022/05/23 06:13:01;;;;;;;9.98;6.45;;;15.40;99.90;;;;;;4780026;29;20051;-78
2022/05/23 06:15:27;;;;;;;8.57;7.68;;;15.50;99.90;;;;;;4789929;29;20170;-78
2022/05/23 06:17:53;;;;;;;8.25;7.22;;;15.70;99.90;;;;;;4785561;29;20055;-77
2022/05/23 06:20:20;;;;;;;8.23;6.70;;;15.90;99.90;;;;;;4745140;30;20043;-77
2022/05/23 06:22:46;;;;;;;7.55;6.32;;;16.10;99.90;;;;;;4773002;30;20466;-77
2022/05/23 06:25:15;;;;;;;8.93;6.60;;;16.30;99.90;;;;;;4773747;30;20043;-77
2022/05/23 06:27:43;;;;;;;7.63;6.47;;;16.50;99.90;;;;;;4773350;30;20429;-77
2022/05/23 06:30:11;;;;;;;10.65;7.13;;;16.50;99.90;;;;;;4788259;29;20077;-77
2022/05/23 06:32:37;;;;;;;12.73;6.85;;;16.60;99.90;;;;;;4772869;29;20046;-77
2022/05/23 06:35:07;;;;;;;7.97;7.03;;;16.50;99.90;;;;;;4759199;30;20111;-78
2022/05/23 06:37:35;;;;;;;9.95;7.18;;;16.50;99.90;;;;;;4774010;30;20399;-77
2022/05/23 06:40:03;;;;;;;8.90;7.40;;;16.60;99.90;;;;;;4773825;29;20058;-78
2022/05/23 06:42:29;;;;;;;11.68;6.68;;;16.50;99.90;;;;;;4782464;29;20165;-78
2022/05/23 06:44:55;;;;;;;9.30;6.63;;;16.50;99.90;;;;;;4753410;29;20050;-78
2022/05/23 06:47:21;;;;;;;8.40;6.38;;;16.60;99.90;;;;;;4769705;29;20055;-78
2022/05/23 06:49:47;;;;;;;10.40;6.97;;;16.70;99.90;;;;;;4767668;29;20250;-78
2022/05/23 06:52:15;;;;;;;8.23;6.65;;;16.80;99.90;;;;;;4765627;29;20054;-78
2022/05/23 06:54:41;;;;;;;9.98;6.53;;;17.00;99.90;;;;;;4767337;29;20043;-78
2022/05/23 06:57:07;;;;;;;8.48;6.95;;;17.30;99.90;;;;;;4784536;29;20047;-78
2022/05/23 06:59:34;;;;;;;11.10;7.03;;;17.40;99.90;;;;;;4768430;29;20055;-78
2022/05/23 07:02:01;;;;;;;8.18;6.90;;;17.60;99.90;;;;;;4768144;29;20629;-79
2022/05/23 07:12:19;;;;;;;9.05;7.13;;;17.80;99.90;;;;;;4783667;29;20074;-79
2022/05/23 07:12:41;;;;;;;9.13;6.55;;;18.30;99.90;;;;;;4784100;29;20055;-78
2022/05/23 07:15:08;;;;;;;8.60;6.55;;;18.50;99.90;;;;;;4767498;29;20050;-78
2022/05/23 07:17:33;;;;;;;10.05;6.72;;;18.70;99.90;;;;;;4769217;29;20047;-78
2022/05/23 07:20:00;;;;;;;8.65;6.88;;;18.90;99.90;;;;;;4768882;29;20047;-78
2022/05/23 07:22:25;;;;;;;10.55;7.18;;;18.90;99.90;;;;;;4771313;29;20058;-78
2022/05/23 07:24:51;;;;;;;8.27;6.70;;;19.00;99.90;;;;;;4771721;29;20054;-78
2022/05/23 07:27:18;;;;;;;11.50;6.75;;;19.00;99.90;;;;;;4786604;29;20406;-78
2022/05/23 07:29:44;;;;;;;9.50;7.10;;;19.00;99.90;;;;;;4756516;29;20441;-79
2022/05/23 07:32:15;;;;;;;11.48;6.43;;;19.00;99.90;;;;;;4756213;29;20054;-78
2022/05/23 07:34:41;;;;;;;9.10;6.55;;;19.10;99.90;;;;;;4786896;29;20090;-79
2022/05/23 07:37:08;;;;;;;8.85;6.10;;;19.20;99.90;;;;;;4784894;29;20055;-78
2022/05/23 07:39:39;;;;;;;9.85;6.30;;;19.30;99.90;;;;;;4770245;29;20159;-79
2022/05/23 07:42:07;;;;;;;15.88;6.43;;;19.40;99.90;;;;;;4783786;29;20054;-79
2022/05/23 07:44:34;;;;;;;12.00;6.32;;;19.40;99.90;;;;;;4785525;29;20055;-79
2022/05/23 07:46:59;;;;;;;7.25;5.97;;;19.40;99.90;;;;;;4770952;29;20043;-79
2022/05/23 07:49:26;;;;;;;8.48;6.05;;;19.50;99.90;;;;;;4798748;29;20160;-78
2022/05/23 07:51:55;;;;;;;7.38;6.03;;;19.50;99.90;;;;;;4786937;29;20087;-78
2022/05/23 08:02:33;;;;;;;9.40;6.43;;;20.10;99.90;;;;;;4771455;29;20062;-79
2022/05/23 08:04:59;;;;;;;8.25;6.30;;;20.30;99.90;;;;;;4771184;29;20184;-79
2022/05/23 08:07:28;;;;;;;9.65;6.32;;;20.40;99.90;;;;;;4799950;29;20090;-79
2022/05/23 08:09:55;;;;;;;7.90;5.20;;;20.60;99.90;;;;;;4771937;29;20464;-78
2022/05/23 08:12:21;;;;;;;8.27;5.43;;;20.70;99.90;;;;;;4754468;29;20054;-80
2022/05/23 08:14:47;;;;;;;9.35;6.07;;;20.80;99.90;;;;;;4798595;29;20061;-79
2022/05/23 08:17:13;;;;;;;8.18;5.93;;;20.90;99.90;;;;;;4771598;29;20431;-78
2022/05/23 08:19:39;;;;;;;8.90;5.70;;;20.90;99.90;;;;;;4753828;29;20047;-79
2022/05/23 08:22:06;;;;;;;7.45;5.28;;;21.00;99.90;;;;;;4752936;29;20052;-79
2022/05/23 08:24:33;;;;;;;6.68;5.15;;;21.10;99.90;;;;;;4780971;29;20483;-79
2022/05/23 08:27:00;;;;;;;7.72;4.55;;;21.20;99.90;;;;;;4753413;29;20139;-78
2022/05/23 08:29:26;;;;;;;7.93;6.05;;;21.40;99.90;;;;;;4766957;29;20084;-78
2022/05/23 08:31:52;;;;;;;7.30;5.03;;;21.60;99.90;;;;;;4767093;29;20048;-79
2022/05/23 08:34:18;;;;;;;5.65;4.90;;;21.60;99.90;;;;;;4766992;29;21391;-78
2022/05/23 08:36:43;;;;;;;8.57;5.25;;;21.70;99.90;;;;;;4766004;29;20128;-78
2022/05/23 08:39:10;;;;;;;6.50;5.43;;;21.80;99.90;;;;;;4767500;29;20508;-78
2022/05/23 08:41:44;;;;;;;6.53;5.63;;;21.70;99.90;;;;;;4765361;29;20602;-78
2022/05/23 08:44:34;;;;;;;7.55;5.47;;;21.70;99.90;;;;;;4796187;29;20089;-78
2022/05/23 08:47:18;;;;;;;7.13;5.40;;;21.70;99.90;;;;;;4767153;29;20063;-78
2022/05/23 08:50:11;;;;;;;6.68;5.20;;;21.70;99.90;;;;;;4780536;29;20177;-78
2022/05/23 08:52:47;;;;;;;9.27;5.10;;;21.80;99.90;;;;;;4781240;29;20059;-77
2022/05/23 08:55:26;;;;;;;6.07;4.82;;;22.00;99.90;;;;;;4782039;29;20047;-78
2022/05/23 08:58:02;;;;;;;7.90;4.93;;;22.30;99.90;;;;;;4784833;29;20268;-78
2022/05/23 09:00:38;;;;;;;9.10;4.60;;;22.50;99.90;;;;;;4784942;29;20587;-78
2022/05/23 09:03:26;;;;;;;6.95;4.47;;;22.60;99.90;;;;;;4754218;29;20134;-78
2022/05/23 09:06:13;;;;;;;4.47;3.75;;;22.70;99.90;;;;;;4770750;29;20097;-78
2022/05/23 09:08:57;;;;;;;7.43;4.05;;;22.90;99.90;;;;;;4785254;29;20047;-78
2022/05/23 09:11:42;;;;;;;8.20;4.85;;;23.00;99.90;;;;;;4783851;29;20063;-78
2022/05/23 09:14:11;;;;;;;7.40;4.97;;;23.10;99.90;;;;;;4783205;29;20689;-78
2022/05/23 09:16:44;;;;;;;4.53;4.10;;;23.20;99.90;;;;;;4769156;29;20130;-79
2022/05/23 09:19:32;;;;;;;6.72;4.47;;;23.30;99.90;;;;;;4784279;29;20381;-79
2022/05/23 09:22:19;;;;;;;5.82;4.30;;;23.40;99.90;;;;;;4768854;29;20063;-78
2022/05/23 09:24:55;;;;;;;4.65;3.72;;;23.40;99.90;;;;;;4783047;29;20113;-78
2022/05/23 09:27:27;;;;;;;6.85;3.83;;;23.50;99.90;;;;;;4770198;29;20333;-78
2022/05/23 09:29:55;;;;;;;6.85;3.83;;;23.50;99.90;;;;;;4783731;29;20575;-78
2022/05/23 09:32:59;;;;;;;8.85;3.97;;;23.60;99.90;;;;;;4784005;29;20419;-78
2022/05/23 09:35:28;;;;;;;9.18;4.13;;;23.70;99.90;;;;;;4784373;29;20047;-78
2022/05/23 09:38:15;;;;;;;7.93;4.35;;;23.90;99.90;;;;;;4768543;29;20065;-78
2022/05/23 09:40:40;;;;;;;8.68;4.70;;;24.00;99.90;;;;;;4783529;29;20299;-78
2022/05/23 09:49:20;;;;;;;7.27;4.07;;;24.30;99.90;;;;;;4756356;29;20066;-79
2022/05/23 09:51:55;;;;;;;6.32;3.67;;;24.50;99.90;;;;;;4770172;29;20147;-79
2022/05/23 09:54:29;;;;;;;4.65;3.47;;;24.60;96.00;;;;;;4784004;29;20059;-79
2022/05/23 09:56:59;;;;;;;6.22;3.72;;;24.70;99.90;;;;;;4784196;29;20051;-79
2022/05/23 09:59:36;;;;;;;9.02;3.20;;;24.80;99.90;;;;;;4754440;29;20573;-79
2022/05/23 10:02:25;;;;;;;5.93;3.30;;;24.70;76.10;;;;;;4767797;29;20051;-78
2022/05/23 10:04:51;;;;;;;4.38;3.22;;;24.50;98.50;;;;;;4757213;29;20056;-78
2022/05/23 10:07:47;;;;;;;4.70;3.45;;;24.30;99.90;;;;;;4752961;29;20056;-78
2022/05/23 10:10:23;;;;;;;3.80;3.38;;;24.10;99.90;;;;;;4783253;29;20063;-78
2022/05/23 10:12:50;;;;;;;4.03;3.25;;;23.90;99.90;;;;;;4783507;29;20090;-78
2022/05/23 10:15:28;;;;;;;4.15;3.28;;;23.80;99.90;;;;;;4785095;29;20131;-78
2022/05/23 10:18:19;;;;;;;5.07;4.20;;;23.70;99.90;;;;;;4783618;29;20065;-78
2022/05/23 10:20:46;;;;;;;6.65;3.83;;;23.60;99.90;;;;;;4776132;29;20059;-78
2022/05/23 10:23:23;;;;;;;4.50;3.70;;;23.60;99.90;;;;;;4784080;29;20055;-78
2022/05/23 10:26:25;;;;;;;7.60;4.30;;;23.60;99.90;;;;;;4784870;29;20105;-78
2022/05/23 10:28:55;;;;;;;;;;;23.60;99.90;;;;;;4745719;30;20533;-78
2022/05/23 10:31:29;;;;;;;5.68;3.70;;;23.50;99.90;;;;;;4762911;29;20048;-78
2022/05/23 10:34:33;;;;;;;6.35;3.58;;;23.50;99.90;;;;;;4768121;29;20487;-77
2022/05/23 10:37:03;;;;;;;14.55;4.28;;;23.50;97.70;;;;;;4782040;29;20542;-78
2022/05/23 10:42:40;;;;;;;4.35;3.63;;;23.50;99.90;;;;;;4768561;29;20059;-78
2022/05/23 10:45:09;;;;;;;7.65;3.55;;;23.70;99.90;;;;;;4760217;29;20575;-78
2022/05/23 10:47:49;;;;;;;4.82;3.22;;;23.90;99.90;;;;;;4768457;29;20052;-79
2022/05/23 10:50:53;;;;;;;4.13;3.17;;;24.20;99.90;;;;;;4752715;29;20091;-78
2022/05/23 10:53:38;;;;;;;8.88;3.55;;;24.40;99.90;;;;;;4767958;29;20047;-78
2022/05/23 10:56:35;;;;;;;9.63;3.80;;;24.70;99.30;;;;;;4768536;29;20623;-79
2022/05/23 10:59:22;;;;;;;5.78;3.72;;;24.90;98.70;;;;;;4767127;29;20103;-78
2022/05/23 11:02:13;;;;;;;4.68;3.00;;;25.00;94.90;;;;;;4767988;29;20090;-79
2022/05/23 11:05:07;;;;;;;3.67;3.00;;;25.10;88.70;;;;;;4768793;29;20055;-78
2022/05/23 11:07:45;;;;;;;6.32;3.08;;;25.20;92.80;;;;;;4769127;29;20142;-79
2022/05/23 11:10:18;;;;;;;6.88;3.20;;;25.50;99.20;;;;;;4772393;29;20047;-79
2022/05/23 11:13:11;;;;;;;4.07;2.95;;;25.50;91.10;;;;;;4770629;29;20460;-79
2022/05/23 11:15:55;;;;;;;5.68;3.25;;;25.60;91.20;;;;;;4782146;29;20055;-78
2022/05/23 11:18:59;;;;;;;5.50;3.10;;;25.80;90.70;;;;;;4768324;29;20079;-78
2022/05/23 11:21:37;;;;;;;2.92;2.72;;;25.90;87.10;;;;;;4782012;29;20205;-78
2022/05/23 11:24:11;;;;;;;3.83;2.75;;;26.00;74.20;;;;;;4782890;29;20079;-78
2022/05/23 11:33:41;;;;;;;5.57;3.00;;;26.10;85.20;;;;;;4768444;29;20063;-78
2022/05/23 11:35:28;;;;;;;3.30;2.30;;;26.40;77.80;;;;;;4782834;29;20055;-75
2022/05/23 11:37:56;;;;;;;2.65;2.38;;;26.30;67.30;;;;;;4781295;29;20051;-81
2022/05/23 11:40:25;;;;;;;3.00;2.60;;;26.30;70.10;;;;;;4782010;29;20504;-79
2022/05/23 11:43:07;;;;;;;4.15;2.90;;;26.30;67.60;;;;;;4781772;29;20063;-79
2022/05/23 11:46:05;;;;;;;4.78;2.80;;;26.30;70.80;;;;;;4781508;29;20063;-79
2022/05/23 11:48:53;;;;;;;3.25;2.72;;;26.10;69.20;;;;;;4783162;29;20051;-79
2022/05/23 11:51:29;;;;;;;3.55;2.92;;;26.10;65.80;;;;;;4782540;29;20055;-80
2022/05/23 11:54:05;;;;;;;6.15;2.85;;;26.20;68.40;;;;;;4781038;29;20055;-79
2022/05/23 11:56:36;;;;;;;7.10;3.05;;;26.10;73.20;;;;;;4784403;29;20088;-79
2022/05/23 11:59:04;;;;;;;5.20;2.70;;;26.20;73.00;;;;;;4782399;29;20051;-79
2022/05/23 12:01:30;;;;;;;5.32;3.45;;;26.20;73.70;;;;;;4782793;29;20047;-79
2022/05/23 12:03:57;;;;;;;3.95;2.95;;;26.20;72.80;;;;;;4753844;29;20043;-79
2022/05/23 12:06:29;;;;;;;4.88;3.10;;;26.30;73.30;;;;;;4783452;29;20903;-79
2022/05/23 12:09:03;;;;;;;5.22;3.17;;;26.40;78.20;;;;;;4770231;29;20047;-79
2022/05/23 12:11:37;;;;;;;6.10;3.47;;;26.40;73.50;;;;;;4782525;29;20059;-80
2022/05/23 12:14:15;;;;;;;4.40;3.58;;;26.50;75.00;;;;;;4798586;29;20088;-79
2022/05/23 12:16:42;;;;;;;4.75;3.38;;;26.50;76.10;;;;;;4784103;29;20054;-79
2022/05/23 12:19:13;;;;;;;3.65;3.10;;;26.60;72.00;;;;;;4768501;29;20111;-80
2022/05/23 12:21:42;;;;;;;3.92;2.70;;;26.60;74.00;;;;;;4783509;29;20078;-80
2022/05/23 12:24:23;;;;;;;6.75;2.78;;;26.60;70.50;;;;;;4801468;29;20055;-79
2022/05/23 12:26:51;;;;;;;4.25;2.40;;;26.60;65.60;;;;;;4788093;29;20499;-79
2022/05/23 12:29:35;;;;;;;3.70;2.70;;;26.60;72.70;;;;;;4785616;29;20061;-80
2022/05/23 12:32:16;;;;;;;5.80;2.58;;;26.70;67.60;;;;;;4789255;29;20051;-78
2022/05/23 12:34:46;;;;;;;4.90;2.60;;;26.60;65.60;;;;;;4806819;29;20059;-78
2022/05/23 12:37:34;;;;;;;4.60;2.80;;;26.40;68.40;;;;;;4805964;29;20090;-78
2022/05/23 12:40:11;;;;;;;3.47;2.90;;;26.10;69.60;;;;;;4821352;29;20039;-78
2022/05/23 12:42:45;;;;;;;6.32;2.70;;;25.70;70.60;;;;;;4806696;29;20053;-79
2022/05/23 12:45:35;;;;;;;5.47;3.05;;;25.40;73.60;;;;;;4820460;29;20062;-79
2022/05/23 12:48:10;;;;;;;4.78;3.13;;;25.20;74.20;;;;;;4789649;29;20547;-80
2022/05/23 12:50:51;;;;;;;5.57;2.70;;;25.00;78.40;;;;;;4805347;29;20063;-79
2022/05/23 12:54:07;;;;;;;4.00;3.30;;;25.10;87.40;;;;;;4820128;29;20427;-78
2022/05/23 12:57:20;;;;;;;6.00;3.38;;;25.00;90.80;;;;;;4775541;29;20496;-79
2022/05/23 13:00:19;;;;;;;5.18;3.33;;;25.00;88.80;;;;;;4741715;29;20067;-78
2022/05/23 13:03:34;;;;;;;4.15;3.40;;;25.00;95.10;;;;;;4785805;29;20078;-79
2022/05/23 13:06:05;;;;;;;3.78;3.25;;;25.00;91.50;;;;;;4731062;30;20213;-79
2022/05/23 13:08:41;;;;;;;4.15;3.35;;;24.90;90.90;;;;;;4747089;30;20093;-79
2022/05/23 13:11:17;;;;;;;5.53;3.90;;;24.80;85.40;;;;;;4746475;29;20055;-79
2022/05/23 13:13:46;;;;;;;4.57;3.10;;;24.80;96.80;;;;;;4772776;29;20055;-78
2022/05/23 13:16:25;;;;;;;6.88;3.53;;;24.80;96.20;;;;;;4802805;29;20134;-82
2022/05/23 13:27:11;;;;;;;4.90;3.72;;;24.50;98.60;;;;;;4793564;29;20055;-80
2022/05/23 13:29:37;;;;;;;5.28;3.85;;;24.40;98.70;;;;;;4795988;29;20042;-80
2022/05/23 13:32:16;;;;;;;5.10;4.05;;;24.40;99.60;;;;;;4792728;29;20110;-80
2022/05/23 13:34:45;;;;;;;6.60;3.85;;;24.50;99.90;;;;;;4780225;29;20086;-79
2022/05/23 13:37:22;;;;;;;5.05;3.60;;;24.50;99.90;;;;;;4792546;29;20665;-80
2022/05/23 13:39:50;;;;;;;7.43;3.70;;;24.50;99.90;;;;;;4794645;29;20237;-81
2022/05/23 13:42:25;;;;;;;4.00;3.47;;;24.50;99.90;;;;;;4762618;29;20054;-81
2022/05/23 13:44:51;;;;;;;4.65;3.80;;;24.50;99.90;;;;;;4808991;29;20050;-80
2022/05/23 13:47:38;;;;;;;4.97;4.07;;;24.40;99.90;;;;;;4794226;29;20054;-80
2022/05/23 13:50:12;;;;;;;4.95;3.72;;;24.30;99.90;;;;;;4794685;29;20070;-80
2022/05/23 13:53:06;;;;;;;5.70;3.60;;;24.20;99.90;;;;;;4794741;29;20078;-80
2022/05/23 13:55:37;;;;;;;4.82;3.80;;;24.10;99.90;;;;;;4790832;29;20058;-80
2022/05/23 13:58:25;;;;;;;4.03;3.63;;;24.10;99.90;;;;;;4792187;29;20051;-81
2022/05/23 14:00:58;;;;;;;4.72;3.53;;;24.10;99.90;;;;;;4793418;29;20079;-80
2022/05/23 14:03:42;;;;;;;5.15;3.88;;;24.10;99.90;;;;;;4805132;29;20465;-79
2022/05/23 14:06:15;;;;;;;5.18;3.53;;;24.10;99.90;;;;;;4806229;29;20063;-81